sensor_id;sensor_type;location;lat;lon;timestamp;temperature;humidity
26103;DHT22;69760;49.380;8.998;2023-12-28T00:00:41;5.10;99.90
26103;DHT22;69760;49.380;8.998;2023-12-28T00:03:06;5.10;99.90
26103;DHT22;69760;49.380;8.998;2023-12-28T00:05:32;5.10;99.90
26103;DHT22;69760;49.380;8.998;2023-12-28T00:07:58;5.10;99.90
26103;DHT22;69760;49.380;8.998;2023-12-28T00:10:27;5.10;99.90
26103;DHT22;69760;49.380;8.998;2023-12-28T00:12:53;5.20;99.90
26103;DHT22;69760;49.380;8.998;2023-12-28T00:15:19;5.20;99.90
26103;DHT22;69760;49.380;8.998;2023-12-28T00:17:45;5.20;99.90
26103;DHT22;69760;49.380;8.998;2023-12-28T00:20:11;5.20;99.90
26103;DHT22;69760;49.380;8.998;2023-12-28T00:22:37;5.20;99.90
26103;DHT22;69760;49.380;8.998;2023-12-28T00:25:04;5.10;99.90
26103;DHT22;69760;49.380;8.998;2023-12-28T00:27:29;5.10;99.90
26103;DHT22;69760;49.380;8.998;2023-12-28T00:29:55;5.10;99.90
26103;DHT22;69760;49.380;8.998;2023-12-28T00:32:20;5.10;99.90
26103;DHT22;69760;49.380;8.998;2023-12-28T00:34:46;5.10;99.90
26103;DHT22;69760;49.380;8.998;2023-12-28T00:37:12;5.10;99.90
26103;DHT22;69760;49.380;8.998;2023-12-28T00:39:37;5.10;99.90
26103;DHT22;69760;49.380;8.998;2023-12-28T00:42:04;5.00;99.90
26103;DHT22;69760;49.380;8.998;2023-12-28T00:44:30;5.00;99.90
26103;DHT22;69760;49.380;8.998;2023-12-28T00:46:55;5.00;99.90
26103;DHT22;69760;49.380;8.998;2023-12-28T00:49:21;4.90;99.90
26103;DHT22;69760;49.380;8.998;2023-12-28T00:51:46;4.90;99.90
26103;DHT22;69760;49.380;8.998;2023-12-28T00:54:12;4.90;99.90
26103;DHT22;69760;49.380;8.998;2023-12-28T00:56:37;4.90;99.90
26103;DHT22;69760;49.380;8.998;2023-12-28T00:59:03;4.90;99.90
26103;DHT22;69760;49.380;8.998;2023-12-28T01:01:28;4.90;99.90
26103;DHT22;69760;49.380;8.998;2023-12-28T01:03:56;4.90;99.90
26103;DHT22;69760;49.380;8.998;2023-12-28T01:06:21;4.90;99.90
26103;DHT22;69760;49.380;8.998;2023-12-28T01:08:47;4.90;99.90
26103;DHT22;69760;49.380;8.998;2023-12-28T01:11:12;4.80;99.90
26103;DHT22;69760;49.380;8.998;2023-12-28T01:13:38;4.80;99.90
26103;DHT22;69760;49.380;8.998;2023-12-28T01:16:04;4.80;99.90
26103;DHT22;69760;49.380;8.998;2023-12-28T01:18:29;4.80;99.90
26103;DHT22;69760;49.380;8.998;2023-12-28T01:20:55;4.80;99.90
26103;DHT22;69760;49.380;8.998;2023-12-28T01:23:20;4.80;99.90
26103;DHT22;69760;49.380;8.998;2023-12-28T01:25:46;4.80;99.90
26103;DHT22;69760;49.380;8.998;2023-12-28T01:28:12;4.80;99.90
26103;DHT22;69760;49.380;8.998;2023-12-28T01:30:37;4.80;99.90
26103;DHT22;69760;49.380;8.998;2023-12-28T01:33:03;4.70;99.90
26103;DHT22;69760;49.380;8.998;2023-12-28T01:35:29;4.80;99.90
26103;DHT22;69760;49.380;8.998;2023-12-28T01:37:55;4.80;99.90
26103;DHT22;69760;49.380;8.998;2023-12-28T01:40:20;4.80;99.90
26103;DHT22;69760;49.380;8.998;2023-12-28T01:42:46;4.70;99.90
26103;DHT22;69760;49.380;8.998;2023-12-28T01:45:11;4.80;99.90
26103;DHT22;69760;49.380;8.998;2023-12-28T01:47:37;4.80;99.90
26103;DHT22;69760;49.380;8.998;2023-12-28T01:50:05;4.70;99.90
26103;DHT22;69760;49.380;8.998;2023-12-28T01:52:31;4.70;99.90
26103;DHT22;69760;49.380;8.998;2023-12-28T01:54:57;4.70;99.90
26103;DHT22;69760;49.380;8.998;2023-12-28T01:57:22;4.70;99.90
26103;DHT22;69760;49.380;8.998;2023-12-28T01:59:48;4.70;99.90
26103;DHT22;69760;49.380;8.998;2023-12-28T02:02:14;4.70;99.90
26103;DHT22;69760;49.380;8.998;2023-12-28T02:04:40;4.70;99.90
26103;DHT22;69760;49.380;8.998;2023-12-28T02:07:06;4.70;99.90
26103;DHT22;69760;49.380;8.998;2023-12-28T02:09:32;4.80;99.90
26103;DHT22;69760;49.380;8.998;2023-12-28T02:11:58;4.70;99.90
26103;DHT22;69760;49.380;8.998;2023-12-28T02:14:24;4.80;99.90
26103;DHT22;69760;49.380;8.998;2023-12-28T02:16:57;4.80;99.90
26103;DHT22;69760;49.380;8.998;2023-12-28T02:19:52;4.80;99.90
26103;DHT22;69760;49.380;8.998;2023-12-28T02:22:19;4.80;99.90
26103;DHT22;69760;49.380;8.998;2023-12-28T02:27:38;4.80;99.90
26103;DHT22;69760;49.380;8.998;2023-12-28T02:30:06;4.80;99.90
26103;DHT22;69760;49.380;8.998;2023-12-28T02:35:33;4.80;99.90
26103;DHT22;69760;49.380;8.998;2023-12-28T02:38:09;4.90;99.90
26103;DHT22;69760;49.380;8.998;2023-12-28T02:40:39;4.90;99.90
26103;DHT22;69760;49.380;8.998;2023-12-28T02:43:06;4.90;99.90
26103;DHT22;69760;49.380;8.998;2023-12-28T02:45:32;5.00;99.90
26103;DHT22;69760;49.380;8.998;2023-12-28T02:47:58;5.10;99.90
26103;DHT22;69760;49.380;8.998;2023-12-28T02:50:23;5.10;99.90
26103;DHT22;69760;49.380;8.998;2023-12-28T02:52:49;5.20;99.90
26103;DHT22;69760;49.380;8.998;2023-12-28T02:55:14;5.20;99.90
26103;DHT22;69760;49.380;8.998;2023-12-28T02:57:40;5.30;99.90
26103;DHT22;69760;49.380;8.998;2023-12-28T03:00:06;5.30;99.90
26103;DHT22;69760;49.380;8.998;2023-12-28T03:02:37;5.40;99.90
26103;DHT22;69760;49.380;8.998;2023-12-28T03:05:06;5.50;99.90
26103;DHT22;69760;49.380;8.998;2023-12-28T03:07:35;5.60;99.90
26103;DHT22;69760;49.380;8.998;2023-12-28T03:10:01;5.70;99.90
26103;DHT22;69760;49.380;8.998;2023-12-28T03:12:28;5.70;99.90
26103;DHT22;69760;49.380;8.998;2023-12-28T03:14:54;5.80;99.90
26103;DHT22;69760;49.380;8.998;2023-12-28T03:17:20;5.80;99.90
26103;DHT22;69760;49.380;8.998;2023-12-28T03:19:45;5.90;99.90
26103;DHT22;69760;49.380;8.998;2023-12-28T03:22:11;5.90;99.90
26103;DHT22;69760;49.380;8.998;2023-12-28T03:24:37;5.90;99.90
26103;DHT22;69760;49.380;8.998;2023-12-28T03:27:04;6.00;99.90
26103;DHT22;69760;49.380;8.998;2023-12-28T03:29:29;6.00;99.90
26103;DHT22;69760;49.380;8.998;2023-12-28T03:31:55;6.00;99.90
26103;DHT22;69760;49.380;8.998;2023-12-28T03:34:20;6.10;99.90
26103;DHT22;69760;49.380;8.998;2023-12-28T03:36:48;6.00;99.90
26103;DHT22;69760;49.380;8.998;2023-12-28T03:39:13;6.10;99.90
26103;DHT22;69760;49.380;8.998;2023-12-28T03:41:39;6.10;99.90
26103;DHT22;69760;49.380;8.998;2023-12-28T03:44:04;6.20;99.90
26103;DHT22;69760;49.380;8.998;2023-12-28T03:46:30;6.20;99.90
26103;DHT22;69760;49.380;8.998;2023-12-28T03:48:56;6.30;99.90
26103;DHT22;69760;49.380;8.998;2023-12-28T03:51:21;6.50;99.90
26103;DHT22;69760;49.380;8.998;2023-12-28T03:53:47;6.70;99.90
26103;DHT22;69760;49.380;8.998;2023-12-28T03:56:23;6.90;99.90
26103;DHT22;69760;49.380;8.998;2023-12-28T03:58:50;7.10;99.90
26103;DHT22;69760;49.380;8.998;2023-12-28T04:01:20;7.30;99.90
26103;DHT22;69760;49.380;8.998;2023-12-28T04:03:46;7.60;99.90
26103;DHT22;69760;49.380;8.998;2023-12-28T04:06:12;7.80;99.90
26103;DHT22;69760;49.380;8.998;2023-12-28T04:08:41;8.10;99.90
26103;DHT22;69760;49.380;8.998;2023-12-28T04:11:07;8.30;99.90
26103;DHT22;69760;49.380;8.998;2023-12-28T04:13:32;8.50;99.90
26103;DHT22;69760;49.380;8.998;2023-12-28T04:15:58;8.70;99.90
26103;DHT22;69760;49.380;8.998;2023-12-28T04:18:23;8.80;99.90
26103;DHT22;69760;49.380;8.998;2023-12-28T04:20:49;9.00;99.90
26103;DHT22;69760;49.380;8.998;2023-12-28T04:23:15;9.10;99.90
26103;DHT22;69760;49.380;8.998;2023-12-28T04:25:41;9.30;99.90
26103;DHT22;69760;49.380;8.998;2023-12-28T04:28:07;9.30;99.90
26103;DHT22;69760;49.380;8.998;2023-12-28T04:30:33;9.40;99.90
26103;DHT22;69760;49.380;8.998;2023-12-28T04:32:59;9.50;99.90
26103;DHT22;69760;49.380;8.998;2023-12-28T04:35:25;9.70;99.90
26103;DHT22;69760;49.380;8.998;2023-12-28T04:37:51;9.80;99.90
26103;DHT22;69760;49.380;8.998;2023-12-28T04:40:16;9.80;99.90
26103;DHT22;69760;49.380;8.998;2023-12-28T04:42:43;9.80;99.90
26103;DHT22;69760;49.380;8.998;2023-12-28T04:45:08;9.90;99.90
26103;DHT22;69760;49.380;8.998;2023-12-28T04:47:35;9.90;99.90
26103;DHT22;69760;49.380;8.998;2023-12-28T04:50:01;9.90;99.90
26103;DHT22;69760;49.380;8.998;2023-12-28T04:52:28;9.90;99.90
26103;DHT22;69760;49.380;8.998;2023-12-28T04:54:54;10.00;99.90
26103;DHT22;69760;49.380;8.998;2023-12-28T04:57:19;10.10;99.90
26103;DHT22;69760;49.380;8.998;2023-12-28T04:59:45;10.00;99.90
26103;DHT22;69760;49.380;8.998;2023-12-28T05:02:10;10.00;99.90
26103;DHT22;69760;49.380;8.998;2023-12-28T05:04:39;9.90;99.90
26103;DHT22;69760;49.380;8.998;2023-12-28T05:07:04;10.00;99.90
26103;DHT22;69760;49.380;8.998;2023-12-28T05:09:30;10.00;99.90
26103;DHT22;69760;49.380;8.998;2023-12-28T05:11:56;10.00;99.90
26103;DHT22;69760;49.380;8.998;2023-12-28T05:14:22;9.90;99.90
26103;DHT22;69760;49.380;8.998;2023-12-28T05:16:47;9.70;99.90
26103;DHT22;69760;49.380;8.998;2023-12-28T05:19:13;9.60;99.90
26103;DHT22;69760;49.380;8.998;2023-12-28T05:21:38;9.50;99.90
26103;DHT22;69760;49.380;8.998;2023-12-28T05:24:04;9.40;99.90
26103;DHT22;69760;49.380;8.998;2023-12-28T05:26:30;9.30;99.90
26103;DHT22;69760;49.380;8.998;2023-12-28T05:28:56;9.10;99.90
26103;DHT22;69760;49.380;8.998;2023-12-28T05:31:21;9.00;99.90
26103;DHT22;69760;49.380;8.998;2023-12-28T05:33:47;9.00;99.90
26103;DHT22;69760;49.380;8.998;2023-12-28T05:36:12;8.90;99.90
26103;DHT22;69760;49.380;8.998;2023-12-28T05:38:38;8.90;99.90
26103;DHT22;69760;49.380;8.998;2023-12-28T05:41:03;8.80;99.90
26103;DHT22;69760;49.380;8.998;2023-12-28T05:43:29;8.90;99.90
26103;DHT22;69760;49.380;8.998;2023-12-28T05:45:54;8.80;99.90
26103;DHT22;69760;49.380;8.998;2023-12-28T05:48:20;8.80;99.90
26103;DHT22;69760;49.380;8.998;2023-12-28T05:50:45;8.80;99.90
26103;DHT22;69760;49.380;8.998;2023-12-28T05:53:11;8.80;99.90
26103;DHT22;69760;49.380;8.998;2023-12-28T05:55:42;8.80;99.90
26103;DHT22;69760;49.380;8.998;2023-12-28T05:58:08;8.80;99.90
26103;DHT22;69760;49.380;8.998;2023-12-28T06:00:34;8.70;99.90
26103;DHT22;69760;49.380;8.998;2023-12-28T06:03:04;8.70;99.90
26103;DHT22;69760;49.380;8.998;2023-12-28T06:05:30;8.70;99.90
26103;DHT22;69760;49.380;8.998;2023-12-28T06:07:55;8.70;99.90
26103;DHT22;69760;49.380;8.998;2023-12-28T06:10:21;8.70;99.90
26103;DHT22;69760;49.380;8.998;2023-12-28T06:12:46;8.70;99.90
26103;DHT22;69760;49.380;8.998;2023-12-28T06:15:12;8.80;99.90
26103;DHT22;69760;49.380;8.998;2023-12-28T06:17:37;8.80;99.90
26103;DHT22;69760;49.380;8.998;2023-12-28T06:20:03;8.70;99.90
26103;DHT22;69760;49.380;8.998;2023-12-28T06:22:30;8.80;99.90
26103;DHT22;69760;49.380;8.998;2023-12-28T06:24:55;8.80;99.90
26103;DHT22;69760;49.380;8.998;2023-12-28T06:27:21;8.70;99.90
26103;DHT22;69760;49.380;8.998;2023-12-28T06:29:49;8.80;99.90
26103;DHT22;69760;49.380;8.998;2023-12-28T06:32:14;8.80;99.90
26103;DHT22;69760;49.380;8.998;2023-12-28T06:34:40;8.80;99.90
26103;DHT22;69760;49.380;8.998;2023-12-28T06:37:05;8.70;99.90
26103;DHT22;69760;49.380;8.998;2023-12-28T06:39:31;8.70;99.90
26103;DHT22;69760;49.380;8.998;2023-12-28T06:41:56;8.60;99.90
26103;DHT22;69760;49.380;8.998;2023-12-28T06:44:22;8.60;99.90
26103;DHT22;69760;49.380;8.998;2023-12-28T06:46:47;8.50;99.90
26103;DHT22;69760;49.380;8.998;2023-12-28T06:49:13;8.50;99.90
26103;DHT22;69760;49.380;8.998;2023-12-28T06:51:38;8.60;99.90
26103;DHT22;69760;49.380;8.998;2023-12-28T06:54:04;8.60;99.90
26103;DHT22;69760;49.380;8.998;2023-12-28T06:56:29;8.50;99.90
26103;DHT22;69760;49.380;8.998;2023-12-28T06:58:55;8.60;99.90
26103;DHT22;69760;49.380;8.998;2023-12-28T07:01:20;8.50;99.90
26103;DHT22;69760;49.380;8.998;2023-12-28T07:03:46;8.60;99.90
26103;DHT22;69760;49.380;8.998;2023-12-28T07:06:13;8.60;99.90
26103;DHT22;69760;49.380;8.998;2023-12-28T07:08:39;8.70;99.90
26103;DHT22;69760;49.380;8.998;2023-12-28T07:11:05;8.70;99.90
26103;DHT22;69760;49.380;8.998;2023-12-28T07:13:30;8.60;99.90
26103;DHT22;69760;49.380;8.998;2023-12-28T07:15:56;8.70;99.90
26103;DHT22;69760;49.380;8.998;2023-12-28T07:18:21;8.60;99.90
26103;DHT22;69760;49.380;8.998;2023-12-28T07:20:47;8.60;99.90
26103;DHT22;69760;49.380;8.998;2023-12-28T07:23:13;8.70;99.90
26103;DHT22;69760;49.380;8.998;2023-12-28T07:25:39;8.60;99.90
26103;DHT22;69760;49.380;8.998;2023-12-28T07:28:05;8.60;99.90
26103;DHT22;69760;49.380;8.998;2023-12-28T07:30:30;8.70;99.90
26103;DHT22;69760;49.380;8.998;2023-12-28T07:32:56;8.70;99.90
26103;DHT22;69760;49.380;8.998;2023-12-28T07:35:22;8.70;99.90
26103;DHT22;69760;49.380;8.998;2023-12-28T07:37:48;8.60;99.90
26103;DHT22;69760;49.380;8.998;2023-12-28T07:40:14;8.60;99.90
26103;DHT22;69760;49.380;8.998;2023-12-28T07:42:40;8.60;99.90
26103;DHT22;69760;49.380;8.998;2023-12-28T07:45:06;8.60;99.90
26103;DHT22;69760;49.380;8.998;2023-12-28T07:47:31;8.60;99.90
26103;DHT22;69760;49.380;8.998;2023-12-28T07:49:57;8.60;99.90
26103;DHT22;69760;49.380;8.998;2023-12-28T07:52:22;8.60;99.90
26103;DHT22;69760;49.380;8.998;2023-12-28T07:54:48;8.70;99.90
26103;DHT22;69760;49.380;8.998;2023-12-28T07:57:14;8.70;99.90
26103;DHT22;69760;49.380;8.998;2023-12-28T07:59:39;8.70;99.90
26103;DHT22;69760;49.380;8.998;2023-12-28T08:02:05;8.80;99.90
26103;DHT22;69760;49.380;8.998;2023-12-28T08:04:30;8.80;99.90
26103;DHT22;69760;49.380;8.998;2023-12-28T08:06:57;8.80;99.90
26103;DHT22;69760;49.380;8.998;2023-12-28T08:09:22;8.80;99.90
26103;DHT22;69760;49.380;8.998;2023-12-28T08:11:48;8.90;99.90
26103;DHT22;69760;49.380;8.998;2023-12-28T08:14:14;9.00;99.90
26103;DHT22;69760;49.380;8.998;2023-12-28T08:16:39;9.10;99.90
26103;DHT22;69760;49.380;8.998;2023-12-28T08:19:05;9.00;99.90
26103;DHT22;69760;49.380;8.998;2023-12-28T08:21:30;9.00;99.90
26103;DHT22;69760;49.380;8.998;2023-12-28T08:23:56;9.00;99.90
26103;DHT22;69760;49.380;8.998;2023-12-28T08:26:22;9.00;99.90
26103;DHT22;69760;49.380;8.998;2023-12-28T08:28:47;9.10;99.90
26103;DHT22;69760;49.380;8.998;2023-12-28T08:31:13;9.10;99.90
26103;DHT22;69760;49.380;8.998;2023-12-28T08:33:39;9.10;99.90
26103;DHT22;69760;49.380;8.998;2023-12-28T08:36:08;9.10;99.90
26103;DHT22;69760;49.380;8.998;2023-12-28T08:38:34;9.20;99.90
26103;DHT22;69760;49.380;8.998;2023-12-28T08:41:00;9.10;99.90
26103;DHT22;69760;49.380;8.998;2023-12-28T08:43:29;9.10;99.90
26103;DHT22;69760;49.380;8.998;2023-12-28T08:45:54;9.20;99.90
26103;DHT22;69760;49.380;8.998;2023-12-28T08:48:20;9.20;99.90
26103;DHT22;69760;49.380;8.998;2023-12-28T08:50:46;9.20;99.90
26103;DHT22;69760;49.380;8.998;2023-12-28T08:53:11;9.20;99.90
26103;DHT22;69760;49.380;8.998;2023-12-28T08:55:37;9.30;99.90
26103;DHT22;69760;49.380;8.998;2023-12-28T08:58:02;9.30;99.90
26103;DHT22;69760;49.380;8.998;2023-12-28T09:00:28;9.30;99.90
26103;DHT22;69760;49.380;8.998;2023-12-28T09:02:53;9.30;99.90
26103;DHT22;69760;49.380;8.998;2023-12-28T09:05:19;9.40;99.90
26103;DHT22;69760;49.380;8.998;2023-12-28T09:07:44;9.30;99.90
26103;DHT22;69760;49.380;8.998;2023-12-28T09:10:13;9.40;99.90
26103;DHT22;69760;49.380;8.998;2023-12-28T09:12:40;9.40;99.90
26103;DHT22;69760;49.380;8.998;2023-12-28T09:15:06;9.40;99.90
26103;DHT22;69760;49.380;8.998;2023-12-28T09:17:32;9.40;99.90
26103;DHT22;69760;49.380;8.998;2023-12-28T09:19:58;9.40;99.90
26103;DHT22;69760;49.380;8.998;2023-12-28T09:22:24;9.40;99.90
26103;DHT22;69760;49.380;8.998;2023-12-28T09:24:50;9.30;99.90
26103;DHT22;69760;49.380;8.998;2023-12-28T09:27:16;9.30;99.90
26103;DHT22;69760;49.380;8.998;2023-12-28T09:29:41;9.40;99.90
26103;DHT22;69760;49.380;8.998;2023-12-28T09:32:07;9.40;99.90
26103;DHT22;69760;49.380;8.998;2023-12-28T09:34:33;9.40;99.90
26103;DHT22;69760;49.380;8.998;2023-12-28T09:36:58;9.50;99.90
26103;DHT22;69760;49.380;8.998;2023-12-28T09:39:24;9.50;99.90
26103;DHT22;69760;49.380;8.998;2023-12-28T09:41:55;9.50;99.90
26103;DHT22;69760;49.380;8.998;2023-12-28T09:44:25;9.40;99.90
26103;DHT22;69760;49.380;8.998;2023-12-28T09:46:50;9.50;99.90
26103;DHT22;69760;49.380;8.998;2023-12-28T09:49:20;9.50;99.90
26103;DHT22;69760;49.380;8.998;2023-12-28T09:51:47;9.40;99.90
26103;DHT22;69760;49.380;8.998;2023-12-28T09:54:12;9.40;99.90
26103;DHT22;69760;49.380;8.998;2023-12-28T09:56:39;9.50;99.90
26103;DHT22;69760;49.380;8.998;2023-12-28T09:59:06;9.40;99.90
26103;DHT22;69760;49.380;8.998;2023-12-28T10:01:34;9.40;99.90
26103;DHT22;69760;49.380;8.998;2023-12-28T10:04:00;9.50;99.90
26103;DHT22;69760;49.380;8.998;2023-12-28T10:06:26;9.50;99.90
26103;DHT22;69760;49.380;8.998;2023-12-28T10:08:51;9.60;99.90
26103;DHT22;69760;49.380;8.998;2023-12-28T10:11:18;9.60;99.90
26103;DHT22;69760;49.380;8.998;2023-12-28T10:13:44;9.60;99.90
26103;DHT22;69760;49.380;8.998;2023-12-28T10:16:11;9.60;99.90
26103;DHT22;69760;49.380;8.998;2023-12-28T10:18:43;9.70;99.90
26103;DHT22;69760;49.380;8.998;2023-12-28T10:21:09;9.70;99.90
26103;DHT22;69760;49.380;8.998;2023-12-28T10:23:34;9.70;99.90
26103;DHT22;69760;49.380;8.998;2023-12-28T10:26:00;9.80;99.90
26103;DHT22;69760;49.380;8.998;2023-12-28T10:28:27;9.80;99.90
26103;DHT22;69760;49.380;8.998;2023-12-28T10:30:55;9.90;99.90
26103;DHT22;69760;49.380;8.998;2023-12-28T10:33:24;9.80;99.90
26103;DHT22;69760;49.380;8.998;2023-12-28T10:35:53;9.80;99.90
26103;DHT22;69760;49.380;8.998;2023-12-28T10:38:21;9.80;99.90
26103;DHT22;69760;49.380;8.998;2023-12-28T10:40:48;9.90;99.90
26103;DHT22;69760;49.380;8.998;2023-12-28T10:43:16;9.90;99.90
26103;DHT22;69760;49.380;8.998;2023-12-28T10:45:46;9.90;99.90
26103;DHT22;69760;49.380;8.998;2023-12-28T10:48:12;9.80;99.90
26103;DHT22;69760;49.380;8.998;2023-12-28T10:50:42;9.90;99.90
26103;DHT22;69760;49.380;8.998;2023-12-28T10:53:21;9.80;99.90
26103;DHT22;69760;49.380;8.998;2023-12-28T10:58:53;9.80;99.90
26103;DHT22;69760;49.380;8.998;2023-12-28T11:01:28;9.70;99.90
26103;DHT22;69760;49.380;8.998;2023-12-28T11:04:00;9.70;99.90
26103;DHT22;69760;49.380;8.998;2023-12-28T11:06:30;9.70;99.90
26103;DHT22;69760;49.380;8.998;2023-12-28T11:08:57;9.70;99.90
26103;DHT22;69760;49.380;8.998;2023-12-28T11:11:23;9.80;99.90
26103;DHT22;69760;49.380;8.998;2023-12-28T11:13:50;9.80;99.90
26103;DHT22;69760;49.380;8.998;2023-12-28T11:16:17;9.70;99.90
26103;DHT22;69760;49.380;8.998;2023-12-28T11:18:44;9.80;99.90
26103;DHT22;69760;49.380;8.998;2023-12-28T11:21:10;9.70;99.90
26103;DHT22;69760;49.380;8.998;2023-12-28T11:23:36;9.60;99.90
26103;DHT22;69760;49.380;8.998;2023-12-28T11:26:01;9.70;99.90
26103;DHT22;69760;49.380;8.998;2023-12-28T11:28:27;9.70;99.90
26103;DHT22;69760;49.380;8.998;2023-12-28T11:30:53;9.70;99.90
26103;DHT22;69760;49.380;8.998;2023-12-28T11:33:18;9.70;99.90
26103;DHT22;69760;49.380;8.998;2023-12-28T11:35:47;9.80;99.90
26103;DHT22;69760;49.380;8.998;2023-12-28T11:38:15;9.90;99.90
26103;DHT22;69760;49.380;8.998;2023-12-28T11:40:44;9.90;99.90
26103;DHT22;69760;49.380;8.998;2023-12-28T11:43:20;9.80;99.90
26103;DHT22;69760;49.380;8.998;2023-12-28T11:45:50;9.80;99.90
26103;DHT22;69760;49.380;8.998;2023-12-28T11:48:23;9.80;99.90
26103;DHT22;69760;49.380;8.998;2023-12-28T11:50:52;9.80;99.90
26103;DHT22;69760;49.380;8.998;2023-12-28T11:53:20;9.80;99.90
26103;DHT22;69760;49.380;8.998;2023-12-28T11:55:45;9.80;99.90
26103;DHT22;69760;49.380;8.998;2023-12-28T11:58:11;9.70;99.90
26103;DHT22;69760;49.380;8.998;2023-12-28T12:00:37;9.60;99.90
26103;DHT22;69760;49.380;8.998;2023-12-28T12:03:03;9.60;99.90
26103;DHT22;69760;49.380;8.998;2023-12-28T12:05:28;9.60;99.90
26103;DHT22;69760;49.380;8.998;2023-12-28T12:07:54;9.60;99.90
26103;DHT22;69760;49.380;8.998;2023-12-28T12:10:20;9.60;99.90
26103;DHT22;69760;49.380;8.998;2023-12-28T12:12:47;9.50;99.90
26103;DHT22;69760;49.380;8.998;2023-12-28T12:15:13;9.50;99.90
26103;DHT22;69760;49.380;8.998;2023-12-28T12:17:39;9.60;99.90
26103;DHT22;69760;49.380;8.998;2023-12-28T12:20:05;9.60;99.90
26103;DHT22;69760;49.380;8.998;2023-12-28T12:22:32;9.50;99.90
26103;DHT22;69760;49.380;8.998;2023-12-28T12:24:59;9.60;99.90
26103;DHT22;69760;49.380;8.998;2023-12-28T12:27:29;9.60;99.90
26103;DHT22;69760;49.380;8.998;2023-12-28T12:29:54;9.60;99.90
26103;DHT22;69760;49.380;8.998;2023-12-28T12:32:20;9.50;99.90
26103;DHT22;69760;49.380;8.998;2023-12-28T12:34:47;9.30;99.90
26103;DHT22;69760;49.380;8.998;2023-12-28T12:37:12;9.30;99.90
26103;DHT22;69760;49.380;8.998;2023-12-28T12:39:38;9.30;99.90
26103;DHT22;69760;49.380;8.998;2023-12-28T12:42:04;9.30;99.90
26103;DHT22;69760;49.380;8.998;2023-12-28T12:44:30;9.20;99.90
26103;DHT22;69760;49.380;8.998;2023-12-28T12:46:59;9.20;99.90
26103;DHT22;69760;49.380;8.998;2023-12-28T12:49:25;9.20;99.90
26103;DHT22;69760;49.380;8.998;2023-12-28T12:51:50;9.30;99.90
26103;DHT22;69760;49.380;8.998;2023-12-28T12:54:17;9.20;99.90
26103;DHT22;69760;49.380;8.998;2023-12-28T12:56:46;9.30;99.90
26103;DHT22;69760;49.380;8.998;2023-12-28T12:59:12;9.30;99.90
26103;DHT22;69760;49.380;8.998;2023-12-28T13:01:44;9.20;99.90
26103;DHT22;69760;49.380;8.998;2023-12-28T13:04:10;9.20;99.90
26103;DHT22;69760;49.380;8.998;2023-12-28T13:06:37;9.20;99.90
26103;DHT22;69760;49.380;8.998;2023-12-28T13:09:02;9.30;99.90
26103;DHT22;69760;49.380;8.998;2023-12-28T13:11:28;9.30;99.90
26103;DHT22;69760;49.380;8.998;2023-12-28T13:13:54;9.20;99.90
26103;DHT22;69760;49.380;8.998;2023-12-28T13:16:19;9.20;99.90
26103;DHT22;69760;49.380;8.998;2023-12-28T13:18:45;9.20;99.90
26103;DHT22;69760;49.380;8.998;2023-12-28T13:21:10;9.20;99.90
26103;DHT22;69760;49.380;8.998;2023-12-28T13:23:36;9.20;99.90
26103;DHT22;69760;49.380;8.998;2023-12-28T13:26:01;9.10;99.90
26103;DHT22;69760;49.380;8.998;2023-12-28T13:28:27;9.20;99.90
26103;DHT22;69760;49.380;8.998;2023-12-28T13:30:52;9.20;99.90
26103;DHT22;69760;49.380;8.998;2023-12-28T13:33:21;9.20;99.90
26103;DHT22;69760;49.380;8.998;2023-12-28T13:35:47;9.20;99.90
26103;DHT22;69760;49.380;8.998;2023-12-28T13:38:12;9.20;99.90
26103;DHT22;69760;49.380;8.998;2023-12-28T13:40:38;9.20;99.90
26103;DHT22;69760;49.380;8.998;2023-12-28T13:43:03;9.30;99.90
26103;DHT22;69760;49.380;8.998;2023-12-28T13:45:29;9.30;99.90
26103;DHT22;69760;49.380;8.998;2023-12-28T13:47:55;9.30;99.90
26103;DHT22;69760;49.380;8.998;2023-12-28T13:50:20;9.30;99.90
26103;DHT22;69760;49.380;8.998;2023-12-28T13:52:46;9.30;99.90
26103;DHT22;69760;49.380;8.998;2023-12-28T13:55:12;9.30;99.90
26103;DHT22;69760;49.380;8.998;2023-12-28T13:57:37;9.30;99.90
26103;DHT22;69760;49.380;8.998;2023-12-28T14:00:03;9.40;99.90
26103;DHT22;69760;49.380;8.998;2023-12-28T14:02:30;9.30;99.90
26103;DHT22;69760;49.380;8.998;2023-12-28T14:04:56;9.30;99.90
26103;DHT22;69760;49.380;8.998;2023-12-28T14:07:22;9.30;99.90
26103;DHT22;69760;49.380;8.998;2023-12-28T14:09:48;9.30;99.90
26103;DHT22;69760;49.380;8.998;2023-12-28T14:12:14;9.20;99.90
26103;DHT22;69760;49.380;8.998;2023-12-28T14:14:40;9.20;99.90
26103;DHT22;69760;49.380;8.998;2023-12-28T14:17:05;9.20;99.90
26103;DHT22;69760;49.380;8.998;2023-12-28T14:19:31;9.10;99.90
26103;DHT22;69760;49.380;8.998;2023-12-28T14:21:58;9.10;99.90
26103;DHT22;69760;49.380;8.998;2023-12-28T14:24:23;9.10;99.90
26103;DHT22;69760;49.380;8.998;2023-12-28T14:26:53;9.00;99.90
26103;DHT22;69760;49.380;8.998;2023-12-28T14:29:22;9.00;99.90
26103;DHT22;69760;49.380;8.998;2023-12-28T14:31:48;9.10;99.90
26103;DHT22;69760;49.380;8.998;2023-12-28T14:34:14;9.00;99.90
26103;DHT22;69760;49.380;8.998;2023-12-28T14:36:40;9.10;99.90
26103;DHT22;69760;49.380;8.998;2023-12-28T14:39:08;9.00;99.90
26103;DHT22;69760;49.380;8.998;2023-12-28T14:41:34;9.10;99.90
26103;DHT22;69760;49.380;8.998;2023-12-28T14:44:00;9.10;99.90
26103;DHT22;69760;49.380;8.998;2023-12-28T14:46:26;9.20;99.90
26103;DHT22;69760;49.380;8.998;2023-12-28T14:48:52;9.20;99.90
26103;DHT22;69760;49.380;8.998;2023-12-28T14:51:18;9.10;99.90
26103;DHT22;69760;49.380;8.998;2023-12-28T14:53:44;9.10;99.90
26103;DHT22;69760;49.380;8.998;2023-12-28T14:56:10;9.10;99.90
26103;DHT22;69760;49.380;8.998;2023-12-28T14:58:37;9.00;99.90
26103;DHT22;69760;49.380;8.998;2023-12-28T15:01:03;9.10;99.90
26103;DHT22;69760;49.380;8.998;2023-12-28T15:03:29;9.10;99.90
26103;DHT22;69760;49.380;8.998;2023-12-28T15:05:54;9.10;99.90
26103;DHT22;69760;49.380;8.998;2023-12-28T15:08:23;9.20;99.90
26103;DHT22;69760;49.380;8.998;2023-12-28T15:10:49;9.20;99.90
26103;DHT22;69760;49.380;8.998;2023-12-28T15:13:14;9.20;99.90
26103;DHT22;69760;49.380;8.998;2023-12-28T15:15:42;9.20;99.90
26103;DHT22;69760;49.380;8.998;2023-12-28T15:18:09;9.30;99.90
26103;DHT22;69760;49.380;8.998;2023-12-28T15:20:35;9.30;99.90
26103;DHT22;69760;49.380;8.998;2023-12-28T15:23:01;9.30;99.90
26103;DHT22;69760;49.380;8.998;2023-12-28T15:25:27;9.30;99.90
26103;DHT22;69760;49.380;8.998;2023-12-28T15:27:53;9.40;99.90
26103;DHT22;69760;49.380;8.998;2023-12-28T15:30:19;9.40;99.90
26103;DHT22;69760;49.380;8.998;2023-12-28T15:32:45;9.40;99.90
26103;DHT22;69760;49.380;8.998;2023-12-28T15:35:12;9.50;99.90
26103;DHT22;69760;49.380;8.998;2023-12-28T15:37:39;9.50;99.90
26103;DHT22;69760;49.380;8.998;2023-12-28T15:40:05;9.50;99.90
26103;DHT22;69760;49.380;8.998;2023-12-28T15:42:31;9.50;99.90
26103;DHT22;69760;49.380;8.998;2023-12-28T15:44:57;9.50;99.90
26103;DHT22;69760;49.380;8.998;2023-12-28T15:47:22;9.40;99.90